createdAt,value
2023-05-20T00:00:53.970Z,15.60
2023-05-20T00:05:56.253Z,15.67
2023-05-20T00:10:58.464Z,17.12
2023-05-20T00:16:01.052Z,17.33
2023-05-20T00:21:03.315Z,15.73
2023-05-20T00:26:05.623Z,17.50
2023-05-20T00:31:08.449Z,18.10
2023-05-20T00:36:10.607Z,19.20
2023-05-20T00:41:12.786Z,19.65
2023-05-20T00:46:14.970Z,19.05
2023-05-20T00:51:17.480Z,16.40
2023-05-20T00:56:21.645Z,17.27
2023-05-20T01:01:23.977Z,16.95
2023-05-20T01:06:26.245Z,17.33
2023-05-20T01:11:37.592Z,16.75
2023-05-20T01:16:40.617Z,20.00
2023-05-20T01:21:43.997Z,17.50
2023-05-20T01:26:48.490Z,16.80
2023-05-20T01:31:54.216Z,18.92
2023-05-20T01:36:57.885Z,16.65
2023-05-20T01:42:02.229Z,18.48
2023-05-20T01:47:04.762Z,16.33
2023-05-20T01:52:07.074Z,19.67
2023-05-20T01:57:09.264Z,18.73
2023-05-20T02:02:11.570Z,16.52
2023-05-20T02:07:15.190Z,17.12
2023-05-20T02:12:17.490Z,15.37
2023-05-20T02:17:19.988Z,16.73
2023-05-20T02:22:22.194Z,15.57
2023-05-20T02:27:24.385Z,17.50
2023-05-20T02:32:28.481Z,14.52
2023-05-20T02:37:30.641Z,15.47
2023-05-20T02:42:32.838Z,17.05
2023-05-20T02:47:35.097Z,15.05
2023-05-20T02:52:37.390Z,17.23
2023-05-20T02:57:39.695Z,16.25
2023-05-20T03:02:41.996Z,14.87
2023-05-20T03:07:44.230Z,17.52
2023-05-20T03:12:46.428Z,17.95
2023-05-20T03:17:48.584Z,17.30
2023-05-20T03:22:50.835Z,16.83
2023-05-20T03:27:53.053Z,17.17
2023-05-20T03:32:58.091Z,15.98
2023-05-20T03:38:11.003Z,19.27
2023-05-20T03:43:13.187Z,18.58
2023-05-20T03:48:15.393Z,19.37
2023-05-20T03:53:17.639Z,17.93
2023-05-20T03:58:20.965Z,18.20
2023-05-20T04:03:28.424Z,18.85
2023-05-20T04:08:30.764Z,16.70
2023-05-20T04:13:33.164Z,18.90
2023-05-20T04:18:39.373Z,17.57
2023-05-20T04:23:41.913Z,17.05
2023-05-20T04:28:44.129Z,18.98
2023-05-20T04:33:52.526Z,17.48
2023-05-20T04:38:55.999Z,17.33
2023-05-20T04:43:59.965Z,16.00
2023-05-20T04:49:02.189Z,19.08
2023-05-20T04:54:04.484Z,16.42
2023-05-20T04:59:06.724Z,15.60
2023-05-20T05:04:08.992Z,17.33
2023-05-20T05:09:11.225Z,15.67
2023-05-20T05:14:13.439Z,15.45
2023-05-20T05:19:15.936Z,13.73
2023-05-20T05:24:18.390Z,17.42
2023-05-20T05:29:20.875Z,15.60
2023-05-20T05:34:23.102Z,15.87
2023-05-20T05:39:25.245Z,18.30
2023-05-20T05:44:27.429Z,15.85
2023-05-20T05:49:29.635Z,14.68
2023-05-20T05:54:31.786Z,15.98
2023-05-20T05:59:33.983Z,15.10
2023-05-20T06:04:36.254Z,13.80
2023-05-20T06:09:39.252Z,15.73
2023-05-20T06:14:41.588Z,15.05
2023-05-20T06:19:43.814Z,14.25
2023-05-20T06:24:45.995Z,13.93
2023-05-20T06:29:48.318Z,16.90
2023-05-20T06:34:50.748Z,17.83
2023-05-20T06:39:54.084Z,16.40
2023-05-20T06:44:56.377Z,13.23
2023-05-20T06:49:58.556Z,13.60
2023-05-20T06:55:00.789Z,15.18
2023-05-20T07:00:05.983Z,13.95
2023-05-20T07:05:08.677Z,12.95
2023-05-20T07:10:11.003Z,13.05
2023-05-20T07:15:13.275Z,13.80
2023-05-20T07:20:15.810Z,13.30
2023-05-20T07:25:18.138Z,15.35
2023-05-20T07:30:20.315Z,13.73
2023-05-20T07:35:22.501Z,15.73
2023-05-20T07:40:24.791Z,19.97
2023-05-20T07:45:27.185Z,15.07
2023-05-20T07:50:29.338Z,13.40
2023-05-20T07:55:37.188Z,12.55
2023-05-20T08:00:39.573Z,16.65
2023-05-20T08:05:42.342Z,15.00
2023-05-20T08:10:44.887Z,12.98
2023-05-20T08:15:48.694Z,13.48
2023-05-20T08:20:51.380Z,15.27
2023-05-20T08:25:53.815Z,12.90
2023-05-20T08:30:56.125Z,14.40
2023-05-20T08:35:58.366Z,14.90
2023-05-20T08:41:02.414Z,15.77
2023-05-20T08:46:12.259Z,17.27
2023-05-20T08:51:17.785Z,17.35
2023-05-20T08:56:22.023Z,17.30
2023-05-20T09:01:26.208Z,18.00
2023-05-20T09:06:28.421Z,17.90
2023-05-20T09:11:30.973Z,18.65
2023-05-20T09:16:33.622Z,19.65
2023-05-20T09:21:36.295Z,18.27
2023-05-20T09:26:38.698Z,18.50
2023-05-20T09:31:41.267Z,20.55
2023-05-20T09:36:48.090Z,18.10
2023-05-20T09:41:57.196Z,20.88
2023-05-20T09:47:01.227Z,20.80
2023-05-20T09:52:04.595Z,20.30
2023-05-20T09:57:07.760Z,21.17
2023-05-20T10:02:10.108Z,22.08
2023-05-20T10:07:44.344Z,19.20
2023-05-20T10:13:32.761Z,21.80
2023-05-20T10:18:43.066Z,22.25
2023-05-20T10:23:45.863Z,22.13
2023-05-20T10:28:48.124Z,21.98
2023-05-20T10:33:53.236Z,21.75
2023-05-20T10:38:58.201Z,19.93
2023-05-20T10:44:07.032Z,23.27
2023-05-20T10:49:26.732Z,23.23
2023-05-20T10:54:29.590Z,22.73
2023-05-20T10:59:31.891Z,22.13
2023-05-20T11:04:34.675Z,22.47
2023-05-20T11:09:37.244Z,23.27
2023-05-20T11:14:39.481Z,21.95
2023-05-20T11:19:42.024Z,23.73
2023-05-20T11:24:44.308Z,22.52
2023-05-20T11:29:53.912Z,23.53
2023-05-20T11:34:56.132Z,25.65
2023-05-20T11:40:08.270Z,23.20
2023-05-20T11:45:14.323Z,22.08
2023-05-20T11:50:20.649Z,24.25
2023-05-20T11:55:22.881Z,24.73
2023-05-20T12:00:26.443Z,26.58
2023-05-20T12:05:31.504Z,24.63
2023-05-20T12:10:33.998Z,24.00
2023-05-20T12:15:36.868Z,25.75
2023-05-20T12:20:39.429Z,24.73
2023-05-20T12:25:41.697Z,24.92
2023-05-20T12:30:44.032Z,23.98
2023-05-20T12:35:46.872Z,24.27
2023-05-20T12:40:49.053Z,22.48
2023-05-20T12:45:52.394Z,23.67
2023-05-20T12:50:54.583Z,25.15
2023-05-20T12:55:56.873Z,22.20
2023-05-20T13:00:59.145Z,22.80
2023-05-20T13:06:01.417Z,22.27
2023-05-20T13:11:03.592Z,22.13
2023-05-20T13:16:05.984Z,21.90
2023-05-20T13:21:08.562Z,22.73
2023-05-20T13:26:11.055Z,23.98
2023-05-20T13:31:13.358Z,23.75
2023-05-20T13:36:16.060Z,23.57
2023-05-20T13:41:18.296Z,22.52
2023-05-20T13:46:20.661Z,19.12
2023-05-20T13:51:23.032Z,22.13
2023-05-20T13:56:25.346Z,20.33
2023-05-20T14:01:30.278Z,19.60
2023-05-20T14:06:33.067Z,18.45
2023-05-20T14:11:35.423Z,19.33
2023-05-20T14:16:39.582Z,20.12
2023-05-20T14:21:41.920Z,19.70
2023-05-20T14:26:44.214Z,19.83
2023-05-20T14:31:46.548Z,21.17
2023-05-20T14:36:48.958Z,20.62
2023-05-20T14:41:51.162Z,18.62
2023-05-20T14:46:53.524Z,19.60
2023-05-20T14:51:55.860Z,19.30
2023-05-20T14:56:58.066Z,18.95
2023-05-20T15:02:00.608Z,18.67
2023-05-20T15:07:03.078Z,18.27
2023-05-20T15:12:06.186Z,19.55
2023-05-20T15:17:08.576Z,16.63
2023-05-20T15:22:10.970Z,15.73
2023-05-20T15:27:13.138Z,16.12
2023-05-20T15:32:15.739Z,17.40
2023-05-20T15:37:18.048Z,17.90
2023-05-20T15:42:21.633Z,18.07
2023-05-20T15:47:23.919Z,16.98
2023-05-20T15:52:26.157Z,18.67
2023-05-20T15:57:30.541Z,17.48
2023-05-20T16:02:35.565Z,16.45
2023-05-20T16:07:39.139Z,16.73
2023-05-20T16:12:41.331Z,15.57
2023-05-20T16:17:43.606Z,16.23
2023-05-20T16:22:46.287Z,15.90
2023-05-20T16:27:48.532Z,16.75
2023-05-20T16:32:50.803Z,15.00
2023-05-20T16:37:53.004Z,14.90
2023-05-20T16:42:55.183Z,14.90
2023-05-20T16:47:57.676Z,15.03
2023-05-20T16:53:00.070Z,15.50
2023-05-20T16:58:02.994Z,14.73
2023-05-20T17:03:05.265Z,15.60
2023-05-20T17:08:07.551Z,15.52
2023-05-20T17:13:10.144Z,15.55
2023-05-20T17:18:12.456Z,13.32
2023-05-20T17:23:15.081Z,13.43
2023-05-20T17:28:17.345Z,12.10
2023-05-20T17:33:20.839Z,12.15
2023-05-20T17:38:26.198Z,13.98
2023-05-20T17:43:28.423Z,13.80
2023-05-20T17:48:30.708Z,11.63
2023-05-20T17:53:32.977Z,13.62
2023-05-20T17:58:35.306Z,12.73
2023-05-20T18:03:39.892Z,11.77
2023-05-20T18:08:42.590Z,11.93
2023-05-20T18:13:44.816Z,11.60
2023-05-20T18:18:47.004Z,15.07
2023-05-20T18:23:49.653Z,14.23
2023-05-20T18:28:51.853Z,12.95
2023-05-20T18:33:54.071Z,12.30
2023-05-20T18:38:56.603Z,13.57
2023-05-20T18:43:58.851Z,14.48
2023-05-20T18:49:01.029Z,14.15
2023-05-20T18:54:03.573Z,15.50
2023-05-20T18:59:05.806Z,14.23
2023-05-20T19:04:08.001Z,14.00
2023-05-20T19:09:10.185Z,15.07
2023-05-20T19:14:12.553Z,16.23
2023-05-20T19:19:14.890Z,16.25
2023-05-20T19:24:19.420Z,14.98
2023-05-20T19:29:21.641Z,16.03
2023-05-20T19:34:25.049Z,16.00
2023-05-20T19:39:27.311Z,15.38
2023-05-20T19:44:29.710Z,15.32
2023-05-20T19:49:33.141Z,14.87
2023-05-20T19:54:35.331Z,15.13
2023-05-20T19:59:38.332Z,18.25
2023-05-20T20:04:42.155Z,17.80
2023-05-20T20:09:45.197Z,15.43
2023-05-20T20:14:47.634Z,14.87
2023-05-20T20:19:53.130Z,15.87
2023-05-20T20:24:55.514Z,15.75
2023-05-20T20:29:57.682Z,15.02
2023-05-20T20:35:00.665Z,15.77
2023-05-20T20:40:03.247Z,16.52
2023-05-20T20:45:06.541Z,17.53
2023-05-20T20:50:09.527Z,18.95
2023-05-20T20:55:11.767Z,17.25
2023-05-20T21:00:17.560Z,16.37
2023-05-20T21:05:21.633Z,18.02
2023-05-20T21:10:29.603Z,18.30
2023-05-20T21:15:31.873Z,17.45
2023-05-20T21:20:34.051Z,16.33
2023-05-20T21:25:36.482Z,15.98
2023-05-20T21:30:38.934Z,15.80
2023-05-20T21:35:41.189Z,16.87
2023-05-20T21:40:43.351Z,16.12
2023-05-20T21:45:46.404Z,16.45
2023-05-20T21:50:48.757Z,16.83
2023-05-20T21:55:51.002Z,17.12
2023-05-20T22:00:53.581Z,17.10
2023-05-20T22:05:56.286Z,15.48
2023-05-20T22:11:00.865Z,17.42
2023-05-20T22:16:05.072Z,17.37
2023-05-20T22:21:07.729Z,17.17
2023-05-20T22:26:10.223Z,18.73
2023-05-20T22:31:12.600Z,18.17
2023-05-20T22:36:14.783Z,17.85
2023-05-20T22:41:16.981Z,16.65
2023-05-20T22:46:19.228Z,16.35
2023-05-20T22:51:22.010Z,16.83
2023-05-20T22:56:25.878Z,19.85
2023-05-20T23:01:28.133Z,16.10
2023-05-20T23:06:30.411Z,16.17
2023-05-20T23:11:32.621Z,17.55
2023-05-20T23:16:36.412Z,16.43
2023-05-20T23:21:38.607Z,16.10
2023-05-20T23:26:40.766Z,17.10
2023-05-20T23:31:43.053Z,16.70
2023-05-20T23:36:45.751Z,18.67
2023-05-20T23:41:47.982Z,17.63
2023-05-20T23:46:51.085Z,15.85
2023-05-20T23:51:53.859Z,18.37
2023-05-20T23:56:56.103Z,16.17
